Aviation Digital Data Service (ADDS)

Output produced by METARs form (1524 UTC 20 March 2019)
found at http://www.aviationweather.gov/metar/data/
 
Forecast for: NVSS (PEKOA ARPT/SANTO, VU)
Text: TAF NVSS 201000Z 2012/2112 VRB03KT 9999 SCT020 BKN110
Forecast period: 1200 UTC 20 March 2019 to 1200 UTC 21 March 2019
Forecast type: FROM: standard forecast or significant change
Winds: variable direction winds at 3 MPH (3 knots; 1.5 m/s)
Visibility: 6 or more miles 10+ km)
Ceiling: 11000 feet AGL
Clouds: scattered clouds at 2000 feet AGL
broken clouds at 11000 feet AGL
Weather: no significant weather forecast for this period
Text: PROB40 INTER 2012/2018 9000 -SHRA BKN018
Forecast period: 1200 to 1800 UTC 20 March 2019
Forecast type: TEMPORARY: The following changes expected for less than half the time period
Visibility: 6 miles (9 km)
Ceiling: 1800 feet AGL
Clouds: broken clouds at 1800 feet AGL
Weather: -SHRA  (light rain showers)